AirNav   Everest Fuels
 
 1460 users online  

FD52 St Cloud Hospital Heliport
St Cloud, Florida, USA

GOING TO ST CLOUD?


FAA INFORMATION EFFECTIVE 05 DECEMBER 2019

Location

FAA Identifier: FD52
Lat/Long: 28-14-38.0500N 081-18-12.4100W
28-14.634167N 081-18.206833W
28.2439028,-81.3034472
(estimated)
Elevation: 70 ft. / 21 m (estimated)
Variation: 03W (1985)
From city: 1 mile W of ST CLOUD, FL
Time zone: UTC -5 (UTC -4 during Daylight Saving Time)
Zip code: 34769

Heliport Operations

Heliport use: Private use, MEDICAL.
Activation date: 11/1985
Control tower: no
ARTCC: JACKSONVILLE CENTER
FSS: SAINT PETERSBURG FLIGHT SERVICE STATION
Attendance: UNATNDD
Wind indicator: yes
Segmented circle: no

Heliport Communications

WX AWOS-3PT at ISM (8 nm W): 128.775 (407-847-0533)
WX ASOS at MCO (11 nm N): PHONE 407-855-5235
WX ASOS at ORL (18 nm N): PHONE 407-658-6753

Nearby radio navigation aids

VOR radial/distance  VOR name  Freq  Var
ORLr175/18.0ORLANDO VORTAC112.2000E
MLBr290/36.3MELBOURNE VOR/DME110.0007W

Heliport Services

Runway Information

Helipad H1

Dimensions: 60 x 60 ft. / 18 x 18 m
Surface: concrete
Latitude: 28-14.634167N
Longitude: 081-18.206833W
Elevation: 70.0 ft.
Traffic pattern: leftleft

Heliport Ownership and Management from official FAA records

Ownership: Privately-owned
Owner: ST. CLOUD REGIONAL MEDICAL CENTER
2906 17TH ST
ST. CLOUD, FL 34769
Phone 407-892-2135
Manager: BRENT BURISH
2906 17TH ST
ST. CLOUD, FL 34769
Phone 407-892-2135
MARI ELLIOTT 407-498-3437

Additional Remarks

FOR CD CTC ORLANDO APCH AT 407-852-7553

Instrument Procedures

There are no published instrument procedures at FD52.

Some nearby airports with instrument procedures:

KISM - Kissimmee Gateway Airport (8 nm W)
KMCO - Orlando International Airport (11 nm N)
KORL - Executive Airport (18 nm N)
KGIF - Winter Haven Regional Airport (26 nm SW)
X07 - Lake Wales Municipal Airport (27 nm SW)
 
Loc | Ops | Rwys | IFR | FBO | Links
Com | Nav | Svcs | Stats | Notes


 
Area around FD52 (St Cloud Hospital Heliport)
 
Road maps at: MapQuest Bing Google
 
Aerial photo
No photo
 
Sectional chart

 
Airport distance calculator
Flying to St Cloud Hospital Heliport? Find the distance to fly.

From to FD52

Sunrise and sunset
Times for 05-Dec-2019
 Local
(UTC-5)
 Zulu
(UTC)
Morning civil twilight06:3811:38
Sunrise07:0412:04
Sunset17:2822:28
Evening civil twilight17:5422:54

Current date and time
Zulu (UTC)  05-Dec-2019 18:08:36
Local (UTC-5)  05-Dec-2019 13:08:36
 
METAR
KISM 
7nm W 
051756Z 03007KT 10SM CLR 20/01 A3012 RMK AO2 SLP199 T02000006 10200 20072 58014
KMCO 
10nm N 
051753Z 36006KT 10SM FEW100 FEW250 21/01 A3011 RMK AO2 SLP194 T02110006 10211 20089 58013
KORL 
18nm N 
051753Z VRB05KT 10SM CLR 21/M01 A3011 RMK AO2 SLP199 T02061006 10211 20106 58014
TAF
KISM 
7nm W 
051735Z 0518/0618 02007KT P6SM SCT250 FM060000 VRB03KT P6SM SCT250 FM061700 19005KT P6SM FEW250
KMCO 
10nm N 
051735Z 0518/0624 35007KT P6SM SCT250 FM052100 03007KT P6SM SCT250 FM060000 VRB03KT P6SM SCT250 FM061800 19006KT P6SM FEW040
NOTAMs
Click for the latest NOTAMs
NOTAMs are issued by the DoD/FAA and will open in a separate window not controlled by AirNav.

 

 
 

Would you like to see your business listed on this page?

 If your business provides an interesting product or service to pilots, flight crews, aircraft, or users of the St Cloud Hospital Heliport, you should consider listing it here.  To start the listing process, click on the button below
 
Add a business
 

Other Pages about St Cloud Hospital Heliport

Update a link
 
Copyright © AirNav, LLC. All rights reserved. Privacy Policy  Contact